Time;durP1;ratioP1;P1;durP2;ratioP2;P2;SDS_P1;SDS_P2;PMS_P1;PMS_P2;Temp;Humidity;BMP_temperature;BMP_pressure;BME280_temperature;BME280_humidity;BME280_pressure;Samples;Min_cycle;Max_cycle;Signal;HPM_P1;HPM_P2
2023/08/25 00:00:19;;;;;;;0.10;0.10;;;;;;;;;;6158307;23;20017;-88
2023/08/25 00:02:45;;;;;;;0.10;0.10;;;;;;;;;;6133569;23;20015;-89
2023/08/25 00:05:11;;;;;;;0.10;0.10;;;;;;;;;;6182863;23;20470;-89
2023/08/25 00:07:37;;;;;;;0.10;0.10;;;;;;;;;;6133287;23;20048;-89
2023/08/25 00:10:03;;;;;;;0.10;0.10;;;;;;;;;;6158110;23;20083;-88
2023/08/25 00:12:29;;;;;;;0.10;0.10;;;;;;;;;;6133139;23;20013;-88
2023/08/25 00:14:55;;;;;;;0.10;0.10;;;;;;;;;;6157831;23;20086;-88
2023/08/25 00:17:21;;;;;;;0.10;0.10;;;;;;;;;;6183952;23;20021;-89
2023/08/25 00:19:47;;;;;;;0.10;0.10;;;;;;;;;;6158289;23;20084;-89
2023/08/25 00:22:13;;;;;;;0.10;0.10;;;;;;;;;;6133643;23;20196;-88
2023/08/25 00:24:39;;;;;;;0.10;0.10;;;;;;;;;;6182403;23;20013;-89
2023/08/25 00:27:05;;;;;;;0.10;0.10;;;;;;;;;;6157872;23;20013;-89
2023/08/25 00:29:31;;;;;;;0.10;0.10;;;;;;;;;;6157795;23;20017;-88
2023/08/25 00:31:57;;;;;;;0.10;0.10;;;;;;;;;;6133512;23;20013;-89
2023/08/25 00:34:23;;;;;;;0.10;0.10;;;;;;;;;;6184250;23;20088;-89
2023/08/25 00:36:49;;;;;;;0.10;0.10;;;;;;;;;;6133070;23;20511;-89
2023/08/25 00:39:15;;;;;;;0.10;0.10;;;;;;;;;;6157687;23;20009;-89
2023/08/25 00:41:41;;;;;;;0.10;0.10;;;;;;;;;;6157795;23;20082;-89
2023/08/25 00:44:07;;;;;;;0.10;0.10;;;;;;;;;;6157860;23;20005;-89
2023/08/25 00:46:33;;;;;;;0.10;0.10;;;;;;;;;;6157984;23;20412;-88
2023/08/25 00:48:59;;;;;;;0.10;0.10;;;;;;;;;;6132770;23;20027;-88
2023/08/25 00:51:25;;;;;;;0.10;0.10;;;;;;;;;;6133558;23;20181;-88
2023/08/25 00:53:51;;;;;;;0.10;0.10;;;;;;;;;;6157602;23;20023;-89
2023/08/25 00:56:18;;;;;;;0.10;0.10;;;;;;;;;;6132432;23;20020;-89
2023/08/25 00:58:44;;;;;;;0.10;0.10;;;;;;;;;;6157513;23;20321;-89
2023/08/25 01:01:10;;;;;;;0.10;0.10;;;;;;;;;;6158019;23;20016;-88
2023/08/25 01:03:38;;;;;;;0.47;0.47;;;;;;;;;;6157838;23;20019;-89
2023/08/25 01:06:04;;;;;;;0.10;0.10;;;;;;;;;;6157822;23;20019;-90
2023/08/25 01:08:30;;;;;;;0.10;0.10;;;;;;;;;;6133240;23;20013;-88
2023/08/25 01:11:14;;;;;;;0.10;0.10;;;;;;;;;;6132919;23;20450;-88
2023/08/25 01:13:47;;;;;;;0.10;0.10;;;;;;;;;;6132475;23;20092;-88
2023/08/25 01:16:13;;;;;;;0.10;0.10;;;;;;;;;;6132643;23;20072;-89
2023/08/25 01:18:39;;;;;;;0.10;0.10;;;;;;;;;;6157762;23;20395;-89
2023/08/25 01:21:04;;;;;;;0.10;0.10;;;;;;;;;;6157341;23;20088;-89
2023/08/25 01:23:47;;;;;;;0.10;0.10;;;;;;;;;;6157683;23;20080;-89
2023/08/25 01:26:13;;;;;;;0.10;0.10;;;;;;;;;;6132557;23;20338;-89
2023/08/25 01:28:40;;;;;;;0.10;0.10;;;;;;;;;;6133316;23;20009;-88
2023/08/25 01:31:06;;;;;;;0.10;0.10;;;;;;;;;;6132998;23;20017;-89
2023/08/25 01:33:32;;;;;;;0.10;0.10;;;;;;;;;;6157627;23;20020;-88
2023/08/25 01:36:01;;;;;;;0.10;0.10;;;;;;;;;;6157344;23;20462;-89
2023/08/25 01:38:44;;;;;;;0.10;0.10;;;;;;;;;;6182516;23;20109;-88
2023/08/25 01:41:11;;;;;;;0.20;0.20;;;;;;;;;;6157855;23;20040;-88
2023/08/25 01:43:38;;;;;;;0.10;0.10;;;;;;;;;;6132540;23;20139;-87
2023/08/25 01:46:04;;;;;;;0.10;0.10;;;;;;;;;;6158101;23;20423;-87
2023/08/25 01:48:30;;;;;;;0.10;0.10;;;;;;;;;;6156846;23;20017;-88
2023/08/25 01:50:57;;;;;;;0.10;0.10;;;;;;;;;;6133078;23;20461;-89
2023/08/25 01:53:23;;;;;;;0.10;0.10;;;;;;;;;;6181903;23;20080;-89
2023/08/25 01:55:48;;;;;;;0.10;0.10;;;;;;;;;;6157171;23;20390;-89
2023/08/25 01:58:14;;;;;;;0.10;0.10;;;;;;;;;;6183684;23;20009;-88
2023/08/25 02:00:41;;;;;;;0.10;0.10;;;;;;;;;;6157612;23;20009;-89
2023/08/25 02:03:07;;;;;;;0.10;0.10;;;;;;;;;;6132844;23;20013;-89
2023/08/25 02:05:33;;;;;;;0.10;0.10;;;;;;;;;;6132980;23;20490;-89
2023/08/25 02:08:00;;;;;;;0.10;0.10;;;;;;;;;;6158875;23;20027;-89
2023/08/25 02:10:26;;;;;;;0.10;0.10;;;;;;;;;;6134928;23;20013;-88
2023/08/25 02:12:52;;;;;;;0.20;0.20;;;;;;;;;;6159658;23;20366;-89
2023/08/25 02:15:17;;;;;;;0.10;0.10;;;;;;;;;;6134912;23;20020;-89
2023/08/25 02:17:43;;;;;;;0.10;0.10;;;;;;;;;;6158763;23;20064;-89
2023/08/25 02:20:10;;;;;;;0.10;0.10;;;;;;;;;;6134292;23;20084;-88
2023/08/25 02:22:36;;;;;;;0.10;0.10;;;;;;;;;;6185712;23;20029;-89
2023/08/25 02:25:03;;;;;;;0.10;0.10;;;;;;;;;;6159610;23;20009;-88
2023/08/25 02:27:29;;;;;;;0.10;0.10;;;;;;;;;;6159154;23;20102;-88
2023/08/25 02:29:55;;;;;;;0.10;0.10;;;;;;;;;;6134394;23;20024;-88
2023/08/25 02:32:21;;;;;;;0.10;0.10;;;;;;;;;;6159404;23;20040;-88
2023/08/25 02:34:47;;;;;;;0.10;0.10;;;;;;;;;;6159328;23;20017;-88
2023/08/25 02:37:13;;;;;;;0.10;0.10;;;;;;;;;;6134412;23;20009;-88
2023/08/25 02:39:39;;;;;;;0.10;0.10;;;;;;;;;;6183903;23;20088;-88
2023/08/25 02:42:05;;;;;;;0.10;0.10;;;;;;;;;;6183874;23;20013;-88
2023/08/25 02:44:31;;;;;;;0.10;0.10;;;;;;;;;;6158800;23;20411;-88
2023/08/25 02:46:57;;;;;;;0.10;0.10;;;;;;;;;;6158784;23;20065;-88
2023/08/25 02:49:23;;;;;;;0.10;0.10;;;;;;;;;;6158800;23;20017;-88
2023/08/25 02:51:49;;;;;;;0.10;0.10;;;;;;;;;;6134382;23;20017;-88
2023/08/25 02:54:16;;;;;;;0.10;0.10;;;;;;;;;;6159314;23;20036;-88
2023/08/25 02:56:42;;;;;;;0.10;0.10;;;;;;;;;;6134114;23;20339;-88
2023/08/25 02:59:08;;;;;;;0.10;0.10;;;;;;;;;;6134572;23;20013;-89
2023/08/25 03:01:35;;;;;;;0.10;0.10;;;;;;;;;;6158758;23;20043;-88
2023/08/25 03:04:01;;;;;;;0.10;0.10;;;;;;;;;;6159112;23;20013;-89
2023/08/25 03:06:27;;;;;;;0.10;0.10;;;;;;;;;;6158768;23;20013;-88
2023/08/25 03:08:53;;;;;;;0.10;0.10;;;;;;;;;;6185326;23;20059;-88
2023/08/25 03:11:19;;;;;;;0.10;0.10;;;;;;;;;;6185226;23;20338;-89
2023/08/25 03:13:45;;;;;;;0.10;0.10;;;;;;;;;;6134078;23;20013;-88
2023/08/25 03:16:11;;;;;;;0.10;0.10;;;;;;;;;;6158509;23;20470;-89
2023/08/25 03:18:37;;;;;;;0.10;0.10;;;;;;;;;;6133794;23;20017;-89
2023/08/25 03:21:03;;;;;;;0.10;0.10;;;;;;;;;;6158702;23;20083;-89
2023/08/25 03:23:29;;;;;;;0.10;0.10;;;;;;;;;;6133909;23;20009;-89
2023/08/25 03:25:55;;;;;;;0.10;0.10;;;;;;;;;;6134138;23;20474;-89
2023/08/25 03:28:21;;;;;;;0.20;0.20;;;;;;;;;;6133892;23;20013;-88
2023/08/25 03:30:51;;;;;;;0.10;0.10;;;;;;;;;;6134266;23;20308;-88
2023/08/25 03:33:17;;;;;;;0.10;0.10;;;;;;;;;;6133504;23;20013;-89
2023/08/25 03:35:43;;;;;;;0.10;0.10;;;;;;;;;;6133504;23;20063;-88
2023/08/25 03:38:09;;;;;;;0.10;0.10;;;;;;;;;;6133893;23;20027;-88
2023/08/25 03:40:34;;;;;;;0.10;0.10;;;;;;;;;;6133676;23;20075;-88
2023/08/25 03:43:00;;;;;;;0.10;0.10;;;;;;;;;;6158534;23;20322;-87
2023/08/25 03:45:26;;;;;;;0.10;0.10;;;;;;;;;;6158803;23;20139;-88
2023/08/25 03:47:52;;;;;;;0.10;0.10;;;;;;;;;;6133719;23;20020;-88
2023/08/25 03:50:18;;;;;;;0.10;0.10;;;;;;;;;;6133561;23;20100;-88
2023/08/25 03:52:47;;;;;;;0.10;0.10;;;;;;;;;;6158445;23;20024;-88
2023/08/25 03:55:13;;;;;;;0.10;0.10;;;;;;;;;;6133724;23;20017;-88
2023/08/25 03:57:39;;;;;;;0.10;0.10;;;;;;;;;;6157793;23;20020;-88
2023/08/25 04:00:07;;;;;;;0.10;0.10;;;;;;;;;;6157757;23;20062;-89
2023/08/25 04:02:33;;;;;;;0.10;0.10;;;;;;;;;;6133163;23;20297;-89
2023/08/25 04:04:59;;;;;;;0.10;0.10;;;;;;;;;;6158527;23;20016;-89
2023/08/25 04:07:25;;;;;;;0.10;0.10;;;;;;;;;;6158027;23;20019;-89
2023/08/25 04:09:54;;;;;;;0.10;0.10;;;;;;;;;;6133190;23;20092;-88
2023/08/25 04:12:20;;;;;;;0.10;0.10;;;;;;;;;;6133080;23;20076;-88
2023/08/25 04:14:46;;;;;;;0.20;0.20;;;;;;;;;;6157867;23;20447;-90
2023/08/25 04:17:12;;;;;;;0.10;0.10;;;;;;;;;;6157997;23;20020;-89
2023/08/25 04:19:38;;;;;;;0.10;0.10;;;;;;;;;;6158167;23;20013;-90
2023/08/25 04:22:04;;;;;;;0.10;0.10;;;;;;;;;;6157699;23;20459;-89
2023/08/25 04:24:30;;;;;;;0.10;0.10;;;;;;;;;;6158326;23;20016;-88
2023/08/25 04:26:56;;;;;;;0.10;0.10;;;;;;;;;;6133245;23;20120;-89
2023/08/25 04:29:22;;;;;;;0.10;0.10;;;;;;;;;;6158058;23;20459;-88
2023/08/25 04:31:48;;;;;;;0.10;0.10;;;;;;;;;;6184301;23;20067;-88
2023/08/25 04:34:14;;;;;;;0.10;0.10;;;;;;;;;;6157684;23;20017;-88
2023/08/25 04:36:40;;;;;;;0.10;0.10;;;;;;;;;;6183885;23;20017;-89
2023/08/25 04:39:06;;;;;;;0.10;0.10;;;;;;;;;;6132494;23;20040;-88
2023/08/25 04:41:32;;;;;;;0.10;0.10;;;;;;;;;;6133365;23;20009;-88
2023/08/25 04:43:59;;;;;;;0.10;0.10;;;;;;;;;;6157731;23;20639;-89
2023/08/25 04:46:28;;;;;;;0.10;0.10;;;;;;;;;;6132872;23;20017;-88
2023/08/25 04:48:54;;;;;;;0.10;0.10;;;;;;;;;;6158223;23;20048;-88
2023/08/25 04:51:20;;;;;;;0.10;0.10;;;;;;;;;;6133433;23;20028;-88
2023/08/25 04:53:45;;;;;;;0.10;0.10;;;;;;;;;;6132661;23;20017;-89
2023/08/25 04:56:11;;;;;;;0.10;0.10;;;;;;;;;;6181942;23;20021;-88
2023/08/25 04:58:37;;;;;;;0.10;0.10;;;;;;;;;;6182537;23;20324;-88
2023/08/25 05:01:04;;;;;;;0.10;0.10;;;;;;;;;;6133593;23;20013;-88
2023/08/25 05:03:30;;;;;;;0.10;0.10;;;;;;;;;;6157889;23;20087;-88
2023/08/25 05:05:56;;;;;;;0.10;0.10;;;;;;;;;;6133029;23;20013;-89
2023/08/25 05:08:22;;;;;;;0.10;0.10;;;;;;;;;;6133378;23;20304;-90
2023/08/25 05:10:47;;;;;;;0.10;0.10;;;;;;;;;;6133282;23;20079;-90
2023/08/25 05:13:13;;;;;;;0.13;0.13;;;;;;;;;;6157662;23;20005;-90
2023/08/25 05:15:39;;;;;;;0.10;0.10;;;;;;;;;;6133433;23;20383;-90
2023/08/25 05:18:06;;;;;;;0.10;0.10;;;;;;;;;;6157853;23;20020;-91
2023/08/25 05:20:32;;;;;;;0.10;0.10;;;;;;;;;;6133694;23;20067;-91
2023/08/25 05:22:58;;;;;;;0.10;0.10;;;;;;;;;;6133385;23;20089;-92
2023/08/25 05:25:24;;;;;;;0.10;0.10;;;;;;;;;;6133598;23;20310;-93
2023/08/25 05:27:50;;;;;;;0.10;0.10;;;;;;;;;;6133420;23;20019;-91
2023/08/25 05:30:16;;;;;;;0.10;0.10;;;;;;;;;;6134331;23;20040;-90
2023/08/25 05:32:42;;;;;;;0.10;0.10;;;;;;;;;;6157571;23;20351;-89
2023/08/25 05:35:08;;;;;;;0.10;0.10;;;;;;;;;;6132715;23;20024;-90
2023/08/25 05:37:34;;;;;;;0.10;0.10;;;;;;;;;;6132985;23;20017;-90
2023/08/25 05:40:00;;;;;;;0.20;0.20;;;;;;;;;;6133141;23;20136;-90
2023/08/25 05:42:31;;;;;;;0.10;0.10;;;;;;;;;;6134289;23;20013;-90
2023/08/25 05:44:57;;;;;;;0.30;0.30;;;;;;;;;;6160519;23;20064;-90
2023/08/25 05:47:23;;;;;;;0.10;0.10;;;;;;;;;;6134608;23;20016;-90
2023/08/25 05:49:50;;;;;;;0.10;0.10;;;;;;;;;;6157932;23;20017;-90
2023/08/25 05:52:16;;;;;;;0.10;0.10;;;;;;;;;;6134376;23;20024;-90
2023/08/25 05:54:42;;;;;;;0.35;0.35;;;;;;;;;;6134632;23;20013;-90
2023/08/25 05:57:08;;;;;;;0.15;0.15;;;;;;;;;;6134753;23;20028;-90
2023/08/25 05:59:34;;;;;;;0.10;0.10;;;;;;;;;;6161807;23;20519;-90
2023/08/25 06:02:00;;;;;;;0.10;0.10;;;;;;;;;;6162154;23;20009;-90
2023/08/25 06:04:26;;;;;;;0.10;0.10;;;;;;;;;;6137371;23;20020;-90
2023/08/25 06:06:52;;;;;;;0.80;0.52;;;;;;;;;;6186527;23;20342;-90
2023/08/25 06:09:18;;;;;;;0.20;0.20;;;;;;;;;;6162568;23;20017;-91
2023/08/25 06:11:45;;;;;;;0.32;0.32;;;;;;;;;;6137775;23;20056;-90
2023/08/25 06:14:12;;;;;;;0.20;0.20;;;;;;;;;;6162616;23;20048;-90
2023/08/25 06:16:41;;;;;;;0.10;0.10;;;;;;;;;;6136935;23;20343;-89
2023/08/25 06:19:07;;;;;;;0.10;0.10;;;;;;;;;;6162184;23;20013;-88
2023/08/25 06:21:33;;;;;;;0.20;0.20;;;;;;;;;;6162494;23;20013;-90
2023/08/25 06:23:59;;;;;;;0.10;0.10;;;;;;;;;;6160706;23;20335;-89
2023/08/25 06:26:25;;;;;;;0.25;0.20;;;;;;;;;;6161814;23;20012;-89
2023/08/25 06:28:52;;;;;;;0.20;0.20;;;;;;;;;;6137332;23;20013;-89
2023/08/25 06:31:18;;;;;;;0.20;0.20;;;;;;;;;;6161824;23;20017;-90
2023/08/25 06:33:45;;;;;;;0.10;0.10;;;;;;;;;;6112265;23;20028;-90
2023/08/25 06:36:11;;;;;;;0.10;0.10;;;;;;;;;;6137002;23;20071;-90
2023/08/25 06:38:37;;;;;;;0.10;0.10;;;;;;;;;;6162130;23;20383;-90
2023/08/25 06:41:03;;;;;;;0.10;0.10;;;;;;;;;;6162317;23;20013;-90
2023/08/25 06:43:29;;;;;;;0.10;0.10;;;;;;;;;;6162513;23;20013;-91
2023/08/25 06:45:56;;;;;;;0.20;0.20;;;;;;;;;;6163158;23;20044;-95
2023/08/25 06:48:22;;;;;;;0.20;0.20;;;;;;;;;;6137612;23;20013;-90
2023/08/25 06:50:48;;;;;;;0.28;0.28;;;;;;;;;;6137688;23;20024;-89
2023/08/25 06:53:14;;;;;;;0.43;0.20;;;;;;;;;;6161405;23;20100;-90
2023/08/25 06:55:40;;;;;;;0.80;0.28;;;;;;;;;;6162315;23;20009;-90
2023/08/25 06:58:07;;;;;;;0.20;0.20;;;;;;;;;;6165918;23;20017;-94
2023/08/25 07:00:35;;;;;;;0.10;0.10;;;;;;;;;;6164986;23;20009;-91
2023/08/25 07:03:03;;;;;;;0.10;0.10;;;;;;;;;;6138755;23;20072;-94
2023/08/25 07:05:29;;;;;;;0.25;0.25;;;;;;;;;;6139352;23;20017;-94
2023/08/25 07:07:55;;;;;;;0.15;0.15;;;;;;;;;;6161627;23;20056;-91
2023/08/25 07:10:21;;;;;;;0.20;0.20;;;;;;;;;;6161961;23;20013;-91
2023/08/25 07:12:48;;;;;;;0.10;0.10;;;;;;;;;;6161743;23;20031;-91
2023/08/25 07:15:14;;;;;;;0.10;0.10;;;;;;;;;;6135115;23;20079;-91
2023/08/25 07:17:40;;;;;;;0.10;0.10;;;;;;;;;;6158650;23;20041;-91
2023/08/25 07:20:06;;;;;;;0.10;0.10;;;;;;;;;;6159488;23;20015;-91
2023/08/25 07:22:32;;;;;;;0.10;0.10;;;;;;;;;;6158862;23;20071;-92
2023/08/25 07:24:58;;;;;;;0.10;0.10;;;;;;;;;;6183500;23;20461;-91
2023/08/25 07:27:24;;;;;;;0.10;0.10;;;;;;;;;;6134100;23;20291;-92
2023/08/25 07:29:53;;;;;;;0.10;0.10;;;;;;;;;;6134197;23;20017;-91
2023/08/25 07:32:23;;;;;;;0.10;0.10;;;;;;;;;;6134113;23;20013;-90
2023/08/25 07:34:49;;;;;;;1.15;0.20;;;;;;;;;;6158856;23;20327;-92
2023/08/25 07:37:15;;;;;;;0.20;0.20;;;;;;;;;;6133835;23;20040;-91
2023/08/25 07:39:41;;;;;;;0.20;0.20;;;;;;;;;;6183720;23;20009;-89
2023/08/25 07:42:07;;;;;;;0.10;0.10;;;;;;;;;;6158870;23;20020;-91
2023/08/25 07:44:33;;;;;;;0.30;0.30;;;;;;;;;;6134200;23;20390;-95
2023/08/25 07:46:59;;;;;;;0.63;0.63;;;;;;;;;;6158840;23;20048;-92
2023/08/25 07:49:25;;;;;;;1.58;0.90;;;;;;;;;;6158496;23;20021;-92
2023/08/25 07:51:51;;;;;;;0.10;0.10;;;;;;;;;;6183173;23;20013;-90
2023/08/25 07:54:17;;;;;;;0.10;0.10;;;;;;;;;;6133955;23;20017;-91
2023/08/25 07:56:43;;;;;;;0.20;0.20;;;;;;;;;;6133702;23;20072;-91
2023/08/25 07:59:10;;;;;;;0.10;0.10;;;;;;;;;;6159090;23;20084;-91
2023/08/25 08:01:36;;;;;;;0.20;0.20;;;;;;;;;;6134554;23;20013;-91
2023/08/25 08:04:03;;;;;;;0.10;0.10;;;;;;;;;;6159569;23;20015;-89
2023/08/25 08:06:29;;;;;;;0.10;0.10;;;;;;;;;;6136890;23;20050;-92
2023/08/25 08:08:55;;;;;;;0.20;0.20;;;;;;;;;;6136785;23;20079;-91
2023/08/25 08:11:22;;;;;;;0.30;0.30;;;;;;;;;;6136078;23;20013;-90
2023/08/25 08:13:47;;;;;;;0.32;0.32;;;;;;;;;;6159681;23;20435;-90
2023/08/25 08:16:13;;;;;;;0.20;0.20;;;;;;;;;;6158120;23;20017;-89
2023/08/25 08:18:39;;;;;;;0.20;0.20;;;;;;;;;;6134279;23;20009;-89
2023/08/25 08:21:06;;;;;;;0.10;0.10;;;;;;;;;;6133855;23;20032;-88
2023/08/25 08:23:32;;;;;;;0.10;0.10;;;;;;;;;;6158737;23;20136;-89
2023/08/25 08:25:59;;;;;;;0.13;0.13;;;;;;;;;;6158704;23;20044;-88
2023/08/25 08:28:25;;;;;;;0.10;0.10;;;;;;;;;;6133254;23;20432;-89
2023/08/25 08:30:51;;;;;;;0.10;0.10;;;;;;;;;;6158706;23;20043;-89
2023/08/25 08:33:18;;;;;;;0.10;0.10;;;;;;;;;;6182765;23;20009;-89
2023/08/25 08:35:45;;;;;;;0.10;0.10;;;;;;;;;;6134230;23;20087;-92
2023/08/25 08:38:11;;;;;;;0.10;0.10;;;;;;;;;;6133858;23;20435;-88
2023/08/25 08:40:37;;;;;;;0.10;0.10;;;;;;;;;;6158026;23;20020;-88
2023/08/25 08:43:03;;;;;;;0.15;0.15;;;;;;;;;;6158188;23;20100;-88
2023/08/25 08:45:31;;;;;;;0.10;0.10;;;;;;;;;;6133970;23;20088;-88
2023/08/25 08:47:57;;;;;;;0.10;0.10;;;;;;;;;;6182340;23;20020;-88
2023/08/25 08:50:23;;;;;;;0.10;0.10;;;;;;;;;;6158571;23;20431;-89
2023/08/25 08:52:49;;;;;;;0.10;0.10;;;;;;;;;;6159198;23;20013;-88
2023/08/25 08:55:16;;;;;;;0.20;0.20;;;;;;;;;;6159517;23;20013;-92
2023/08/25 08:57:43;;;;;;;0.10;0.10;;;;;;;;;;6158784;23;20466;-88
2023/08/25 09:00:12;;;;;;;0.10;0.10;;;;;;;;;;6133982;23;20328;-88
2023/08/25 09:02:38;;;;;;;0.10;0.10;;;;;;;;;;6133346;23;20012;-87
2023/08/25 09:05:04;;;;;;;0.10;0.10;;;;;;;;;;6158716;23;20105;-88
2023/08/25 09:07:33;;;;;;;0.10;0.10;;;;;;;;;;6133583;23;20024;-88
2023/08/25 09:09:59;;;;;;;0.10;0.10;;;;;;;;;;6159047;23;20017;-88
2023/08/25 09:12:26;;;;;;;0.10;0.10;;;;;;;;;;6133736;23;20017;-88
2023/08/25 09:14:52;;;;;;;0.20;0.20;;;;;;;;;;6109307;23;20017;-90
2023/08/25 09:17:18;;;;;;;0.10;0.10;;;;;;;;;;6157901;23;20013;-90
2023/08/25 09:19:44;;;;;;;0.10;0.10;;;;;;;;;;6159296;23;20013;-90
2023/08/25 09:22:11;;;;;;;0.10;0.10;;;;;;;;;;6158508;23;20335;-90
2023/08/25 09:24:38;;;;;;;0.10;0.10;;;;;;;;;;6158396;23;20044;-89
2023/08/25 09:27:04;;;;;;;0.10;0.10;;;;;;;;;;6135323;23;20319;-90
2023/08/25 09:29:40;;;;;;;0.20;0.20;;;;;;;;;;6160328;23;20180;-90
2023/08/25 09:32:06;;;;;;;0.10;0.10;;;;;;;;;;6136019;23;20462;-89
2023/08/25 09:34:32;;;;;;;0.10;0.10;;;;;;;;;;6160904;23;20040;-93
2023/08/25 09:36:58;;;;;;;0.30;0.30;;;;;;;;;;6110479;23;20371;-96
2023/08/25 09:39:24;;;;;;;0.10;0.10;;;;;;;;;;6134079;23;20096;-90
2023/08/25 09:41:51;;;;;;;0.20;0.13;;;;;;;;;;6158712;23;20012;-90
2023/08/25 09:44:17;;;;;;;0.20;0.20;;;;;;;;;;6133616;23;20020;-90
2023/08/25 09:46:43;;;;;;;0.10;0.10;;;;;;;;;;6158734;23;20013;-90
2023/08/25 09:49:10;;;;;;;0.10;0.10;;;;;;;;;;6158204;23;20040;-90
2023/08/25 09:51:47;;;;;;;0.10;0.10;;;;;;;;;;6133472;23;20455;-89
2023/08/25 09:54:14;;;;;;;0.20;0.20;;;;;;;;;;6134351;23;20040;-89
2023/08/25 09:56:41;;;;;;;0.10;0.10;;;;;;;;;;6133283;23;20020;-90
2023/08/25 09:59:07;;;;;;;0.10;0.10;;;;;;;;;;6158172;23;20009;-90
2023/08/25 10:01:34;;;;;;;0.10;0.10;;;;;;;;;;6133263;23;20013;-90
2023/08/25 10:04:00;;;;;;;0.10;0.10;;;;;;;;;;6158063;23;20439;-90
2023/08/25 10:06:26;;;;;;;0.10;0.10;;;;;;;;;;6133391;23;20074;-90
2023/08/25 10:08:53;;;;;;;0.32;0.32;;;;;;;;;;6132845;23;20059;-90
2023/08/25 10:11:19;;;;;;;0.43;0.20;;;;;;;;;;6132495;23;20028;-90
2023/08/25 10:13:45;;;;;;;0.10;0.10;;;;;;;;;;6133268;23;20013;-89
2023/08/25 10:16:11;;;;;;;0.20;0.20;;;;;;;;;;6135073;23;20017;-87
2023/08/25 10:18:40;;;;;;;0.10;0.10;;;;;;;;;;6133126;23;20010;-89
2023/08/25 10:21:07;;;;;;;0.10;0.10;;;;;;;;;;6157128;23;20016;-91
2023/08/25 10:23:33;;;;;;;0.10;0.10;;;;;;;;;;6132400;23;20112;-90
2023/08/25 10:26:00;;;;;;;0.10;0.10;;;;;;;;;;6132536;23;20313;-90
2023/08/25 10:28:26;;;;;;;0.10;0.10;;;;;;;;;;6133543;23;20012;-89
2023/08/25 10:30:52;;;;;;;0.10;0.10;;;;;;;;;;6157473;23;20501;-88
2023/08/25 10:33:18;;;;;;;0.10;0.10;;;;;;;;;;6159417;23;20020;-90
2023/08/25 10:35:45;;;;;;;0.10;0.10;;;;;;;;;;6134107;23;20400;-90
2023/08/25 10:38:22;;;;;;;0.10;0.10;;;;;;;;;;6134029;23;20021;-90
2023/08/25 10:40:51;;;;;;;0.10;0.10;;;;;;;;;;6184418;23;20009;-93
2023/08/25 10:43:34;;;;;;;0.10;0.10;;;;;;;;;;6135989;23;20013;-89
2023/08/25 10:46:07;;;;;;;0.10;0.10;;;;;;;;;;6134403;23;20013;-90
2023/08/25 10:48:33;;;;;;;0.20;0.20;;;;;;;;;;6185211;23;20017;-90
2023/08/25 10:51:11;;;;;;;0.10;0.10;;;;;;;;;;6134264;23;20020;-89
2023/08/25 10:53:44;;;;;;;0.10;0.10;;;;;;;;;;6134043;23;20447;-90
2023/08/25 10:56:22;;;;;;;0.20;0.20;;;;;;;;;;6159204;23;20472;-89
2023/08/25 10:58:55;;;;;;;0.10;0.10;;;;;;;;;;6183606;23;20821;-89
2023/08/25 11:01:24;;;;;;;0.10;0.10;;;;;;;;;;6158538;23;20451;-89
2023/08/25 11:04:06;;;;;;;0.10;0.10;;;;;;;;;;6158940;23;20343;-88
2023/08/25 11:06:39;;;;;;;0.20;0.20;;;;;;;;;;6159531;23;20013;-88
2023/08/25 11:09:06;;;;;;;0.10;0.10;;;;;;;;;;6158818;23;20056;-88
2023/08/25 11:11:34;;;;;;;0.20;0.20;;;;;;;;;;6185193;23;20047;-88
2023/08/25 11:14:00;;;;;;;0.10;0.10;;;;;;;;;;6134550;23;20074;-88
2023/08/25 11:16:26;;;;;;;0.20;0.20;;;;;;;;;;6158190;23;20462;-88
2023/08/25 11:18:52;;;;;;;0.20;0.20;;;;;;;;;;6135029;23;20020;-88
2023/08/25 11:21:22;;;;;;;0.10;0.10;;;;;;;;;;6185317;23;20017;-89
2023/08/25 11:23:48;;;;;;;0.10;0.10;;;;;;;;;;6134379;23;20364;-88
2023/08/25 11:26:16;;;;;;;0.10;0.10;;;;;;;;;;6158367;23;20021;-89
2023/08/25 11:29:19;;;;;;;0.20;0.20;;;;;;;;;;6139164;23;20021;-95
2023/08/25 11:31:46;;;;;;;0.10;0.10;;;;;;;;;;6157300;23;20044;-89
2023/08/25 11:34:11;;;;;;;0.20;0.20;;;;;;;;;;6159182;23;20024;-89
2023/08/25 11:36:38;;;;;;;0.20;0.10;;;;;;;;;;6158900;23;20018;-90
2023/08/25 11:39:04;;;;;;;0.10;0.10;;;;;;;;;;6159022;23;20017;-89
2023/08/25 11:41:30;;;;;;;0.10;0.10;;;;;;;;;;6159490;23;20009;-89
2023/08/25 11:43:55;;;;;;;0.10;0.10;;;;;;;;;;6134467;23;20013;-90
2023/08/25 11:46:21;;;;;;;0.20;0.20;;;;;;;;;;6158776;23;20016;-90
2023/08/25 11:48:53;;;;;;;0.10;0.10;;;;;;;;;;6134142;23;20163;-90
2023/08/25 11:51:19;;;;;;;0.10;0.10;;;;;;;;;;6134610;23;20024;-89
2023/08/25 11:53:45;;;;;;;0.10;0.10;;;;;;;;;;6185432;23;20011;-90
2023/08/25 11:56:15;;;;;;;0.20;0.20;;;;;;;;;;6134497;23;20095;-90
2023/08/25 11:58:41;;;;;;;0.10;0.10;;;;;;;;;;6134063;23;20045;-90
2023/08/25 12:01:11;;;;;;;0.20;0.20;;;;;;;;;;6159089;23;20348;-90
2023/08/25 12:03:38;;;;;;;0.20;0.20;;;;;;;;;;6134159;23;20439;-90
2023/08/25 12:06:07;;;;;;;0.20;0.20;;;;;;;;;;6184827;23;20017;-90
2023/08/25 12:08:33;;;;;;;0.20;0.20;;;;;;;;;;6134402;23;20015;-90
2023/08/25 12:11:00;;;;;;;0.10;0.10;;;;;;;;;;6185306;23;20012;-90
2023/08/25 12:13:29;;;;;;;0.10;0.10;;;;;;;;;;6134592;23;20020;-90
2023/08/25 12:15:55;;;;;;;0.20;0.20;;;;;;;;;;6184956;23;20426;-89
2023/08/25 12:18:22;;;;;;;0.10;0.10;;;;;;;;;;6158589;23;20044;-89
2023/08/25 12:20:48;;;;;;;0.20;0.20;;;;;;;;;;6158343;23;20009;-92
2023/08/25 12:23:17;;;;;;;0.10;0.10;;;;;;;;;;6183540;23;20009;-92
2023/08/25 12:25:43;;;;;;;0.20;0.20;;;;;;;;;;6134158;23;20032;-90
2023/08/25 12:28:10;;;;;;;0.30;0.30;;;;;;;;;;6134009;23;20099;-93
2023/08/25 12:30:36;;;;;;;0.10;0.10;;;;;;;;;;6158650;23;20056;-90
2023/08/25 12:33:03;;;;;;;0.10;0.10;;;;;;;;;;6133719;23;20020;-91
2023/08/25 12:35:29;;;;;;;0.40;0.30;;;;;;;;;;6133509;23;20399;-91
2023/08/25 12:37:55;;;;;;;0.15;0.15;;;;;;;;;;6158107;23;20384;-91
2023/08/25 12:40:21;;;;;;;0.10;0.10;;;;;;;;;;6158718;23;20005;-90
2023/08/25 12:42:51;;;;;;;0.10;0.10;;;;;;;;;;6134031;23;20384;-91
2023/08/25 12:45:18;;;;;;;0.10;0.10;;;;;;;;;;6183455;23;20024;-90
2023/08/25 12:47:44;;;;;;;0.10;0.10;;;;;;;;;;6133850;23;20092;-91
2023/08/25 12:50:10;;;;;;;0.17;0.17;;;;;;;;;;6157780;23;20025;-91
2023/08/25 12:52:36;;;;;;;0.20;0.20;;;;;;;;;;6183872;23;20151;-90
2023/08/25 12:55:03;;;;;;;0.10;0.10;;;;;;;;;;6133785;23;20035;-91
2023/08/25 12:57:29;;;;;;;0.10;0.10;;;;;;;;;;6133553;23;20029;-90
2023/08/25 12:59:55;;;;;;;0.20;0.20;;;;;;;;;;6158403;23;20338;-92
2023/08/25 13:02:21;;;;;;;0.20;0.20;;;;;;;;;;6133546;23;20013;-89
2023/08/25 13:04:47;;;;;;;0.20;0.20;;;;;;;;;;6157960;23;20013;-90
2023/08/25 13:07:14;;;;;;;0.15;0.15;;;;;;;;;;6133160;23;20068;-93
2023/08/25 13:09:41;;;;;;;0.20;0.20;;;;;;;;;;6133841;23;20013;-91
2023/08/25 13:12:07;;;;;;;0.20;0.20;;;;;;;;;;6133542;23;20020;-90
2023/08/25 13:14:33;;;;;;;0.10;0.10;;;;;;;;;;6158034;23;20012;-89
2023/08/25 13:16:59;;;;;;;0.10;0.10;;;;;;;;;;6157532;23;20403;-91
2023/08/25 13:19:25;;;;;;;0.20;0.20;;;;;;;;;;6133382;23;20032;-93
2023/08/25 13:21:52;;;;;;;0.65;0.65;;;;;;;;;;6133826;23;20435;-91
2023/08/25 13:24:18;;;;;;;0.10;0.10;;;;;;;;;;6133826;23;20037;-93
2023/08/25 13:26:44;;;;;;;0.10;0.10;;;;;;;;;;6133890;23;20075;-93
2023/08/25 13:29:10;;;;;;;0.57;0.57;;;;;;;;;;6133675;23;20017;-92
2023/08/25 13:31:36;;;;;;;0.20;0.20;;;;;;;;;;6133632;23;20395;-92
2023/08/25 13:34:02;;;;;;;0.10;0.10;;;;;;;;;;6132975;23;20471;-91
2023/08/25 13:36:28;;;;;;;0.10;0.10;;;;;;;;;;6132563;23;20064;-90
2023/08/25 13:38:55;;;;;;;0.10;0.10;;;;;;;;;;6133528;23;20387;-90
2023/08/25 13:41:20;;;;;;;0.10;0.10;;;;;;;;;;6133159;23;20079;-90
2023/08/25 13:43:47;;;;;;;0.10;0.10;;;;;;;;;;6132767;23;20404;-90
2023/08/25 13:46:12;;;;;;;0.17;0.17;;;;;;;;;;6132975;23;20013;-91
2023/08/25 13:48:39;;;;;;;0.10;0.10;;;;;;;;;;6157531;23;20332;-94
2023/08/25 13:51:05;;;;;;;0.10;0.10;;;;;;;;;;6133678;23;20055;-93
2023/08/25 13:53:31;;;;;;;0.10;0.10;;;;;;;;;;6132831;23;20340;-95
2023/08/25 13:55:57;;;;;;;0.20;0.20;;;;;;;;;;6135239;23;20013;-91
2023/08/25 13:58:23;;;;;;;0.10;0.10;;;;;;;;;;6133047;23;20014;-92
2023/08/25 14:00:49;;;;;;;0.10;0.10;;;;;;;;;;6133571;23;20013;-93
2023/08/25 14:03:15;;;;;;;0.38;0.38;;;;;;;;;;6134890;23;20073;-94
2023/08/25 14:05:41;;;;;;;0.10;0.10;;;;;;;;;;6135121;23;20009;-92
2023/08/25 14:08:07;;;;;;;0.10;0.10;;;;;;;;;;6133042;23;20453;-92
2023/08/25 14:10:33;;;;;;;0.10;0.10;;;;;;;;;;6134923;23;20024;-92
2023/08/25 14:12:59;;;;;;;0.10;0.10;;;;;;;;;;6134221;23;20017;-91
2023/08/25 14:15:25;;;;;;;0.10;0.10;;;;;;;;;;6134492;23;20023;-92
2023/08/25 14:17:51;;;;;;;0.38;0.38;;;;;;;;;;6134761;23;20012;-91
2023/08/25 14:20:17;;;;;;;0.30;0.30;;;;;;;;;;6134532;23;20105;-89
2023/08/25 14:22:43;;;;;;;0.10;0.10;;;;;;;;;;6158882;23;20013;-88
2023/08/25 14:25:09;;;;;;;0.15;0.15;;;;;;;;;;6159227;23;20147;-89
2023/08/25 14:27:35;;;;;;;0.20;0.20;;;;;;;;;;6134871;23;20095;-89
2023/08/25 14:30:01;;;;;;;0.20;0.20;;;;;;;;;;6159182;23;20394;-88
2023/08/25 14:32:28;;;;;;;0.20;0.20;;;;;;;;;;6135159;23;20055;-89
2023/08/25 14:34:54;;;;;;;0.10;0.10;;;;;;;;;;6135023;23;20017;-90
2023/08/25 14:37:20;;;;;;;0.10;0.10;;;;;;;;;;6134805;23;20017;-92
2023/08/25 14:39:46;;;;;;;0.10;0.10;;;;;;;;;;6135079;23;20469;-90